Bellevue, NE (68123)

7:51 AM CST on December 18, 2014 (GMT -0600)
Southern Oaks - SW Bellevue | Change Station
CLOSE
Current Station
Personal Weather Station
Location: Bellevue, NE
Elevation: 1033 ft
Nearby Weather Stations

Elev 1033 ft 41.13 °N, 95.95 °W | Updated 4 seconds ago

Light Snow
Light Snow Mist
25.6 °F
Feels Like 26 °F
N
1.0
Wind Variable Wind from ENE
Gusts 2.0 mph

Today
High -- | Low -- °F
--% Chance of Precip.
Yesterday
High -- | Low -- °F
Precip. -- in
7:43 AM 4:57 PM
Waning Crescent, 14% visible
Pressure 30.29 in
Visibility 3.0 miles
Clouds Mostly Cloudy 700 ft
Overcast 2500 ft
Windchill 26 °F
Dew Point 22 °F
Humidity 88%
Rainfall 0.00 in
Snow Depth Not available.
UV 0 out of 12
Pollen .10 out of 12
Air Quality Not available.
Flu Activity Not available.
METAR KOFF 181259Z 08003KT 3SM -SN BR BKN007 OVC025 M03/M05 A3023 RMK AO2A CIG 006 RWY30 SLP255 P0000 T10331046

More Conditions Fewer Conditions

Pressure 30.29 in
Visibility 3.0 miles
Clouds Mostly Cloudy 700 ft
Overcast 2500 ft
Windchill 26 °F
Dew Point 22 °F
Humidity 88%
Rainfall 0.00 in
Snow Depth Not available.
UV 0 out of 12
Pollen .10 out of 12
Air Quality Not available.
Flu Activity Not available.
METAR KOFF 181259Z 08003KT 3SM -SN BR BKN007 OVC025 M03/M05 A3023 RMK AO2A CIG 006 RWY30 SLP255 P0000 T10331046

More Conditions Fewer Conditions

10-Day Weather Forecast

Almanac

Astronomy

Dec. 18, 2014 Rise Set
Actual Time
Civil Twilight
Nautical Twilight
Astronomical Twilight
Moon
Length of Visible Light
Length of Day
Tomorrow will be .
, % of the Moon is Illuminated

Today's Extremes

State Highs State Lows

Community

WunderPhotos

Upload Photos

1,778,928 photos uploaded!

WunderBlogs® & News

Nearby

Air Quality

  Air Quality AQ Index Pollutant
Not available.

Snow Depth

Station Depth Elevation

Earthquake Activity

City Distance Mag. Time & Date
Minimum magnitude displayed is 2.5.

Coastal Water Temperatures

Place Temperature

Nearby Weather Stations